createdAt,value
2023-05-23T00:02:13.846Z,8.05
2023-05-23T00:07:16.400Z,7.90
2023-05-23T00:12:17.842Z,7.88
2023-05-23T00:17:19.748Z,8.57
2023-05-23T00:22:21.970Z,8.25
2023-05-23T00:27:23.985Z,8.60
2023-05-23T00:32:25.477Z,8.65
2023-05-23T00:37:26.956Z,9.00
2023-05-23T00:42:28.597Z,9.20
2023-05-23T00:47:30.130Z,9.80
2023-05-23T00:52:31.630Z,9.63
2023-05-23T00:57:39.654Z,9.40
2023-05-23T01:02:47.867Z,10.27
2023-05-23T01:07:51.184Z,10.13
2023-05-23T01:12:58.426Z,9.50
2023-05-23T01:18:10.060Z,8.77
2023-05-23T01:23:19.366Z,8.93
2023-05-23T01:28:23.206Z,9.05
2023-05-23T01:33:25.866Z,8.65
2023-05-23T01:38:27.316Z,8.10
2023-05-23T01:43:28.918Z,8.32
2023-05-23T01:48:32.098Z,8.23
2023-05-23T01:53:35.450Z,8.38
2023-05-23T01:58:37.040Z,8.07
2023-05-23T02:03:38.652Z,7.80
2023-05-23T02:08:40.239Z,8.60
2023-05-23T02:13:41.710Z,8.25
2023-05-23T02:18:46.152Z,8.90
2023-05-23T02:23:47.720Z,8.57
2023-05-23T02:28:49.168Z,8.27
2023-05-23T02:33:50.691Z,8.85
2023-05-23T02:38:52.474Z,8.15
2023-05-23T02:43:53.979Z,7.88
2023-05-23T02:48:55.581Z,8.90
2023-05-23T02:53:57.069Z,8.75
2023-05-23T02:58:58.517Z,9.25
2023-05-23T03:04:00.008Z,8.40
2023-05-23T03:09:01.698Z,8.45
2023-05-23T03:14:03.256Z,9.10
2023-05-23T03:19:04.953Z,8.35
2023-05-23T03:24:06.919Z,8.75
2023-05-23T03:29:10.931Z,8.35
2023-05-23T03:34:13.143Z,9.25
2023-05-23T03:39:14.708Z,9.23
2023-05-23T03:44:16.252Z,8.45
2023-05-23T03:49:17.809Z,8.48
2023-05-23T03:54:19.337Z,8.55
2023-05-23T03:59:20.939Z,9.98
2023-05-23T04:04:23.028Z,8.90
2023-05-23T04:09:24.585Z,9.13
2023-05-23T04:14:26.109Z,8.82
2023-05-23T04:19:27.795Z,8.95
2023-05-23T04:24:29.283Z,9.55
2023-05-23T04:29:31.734Z,10.07
2023-05-23T04:34:38.024Z,8.85
2023-05-23T04:39:39.659Z,9.13
2023-05-23T04:44:41.802Z,9.30
2023-05-23T04:49:43.514Z,9.57
2023-05-23T04:54:48.860Z,9.00
2023-05-23T04:59:50.702Z,10.15
2023-05-23T05:04:52.162Z,10.05
2023-05-23T05:09:53.644Z,10.77
2023-05-23T05:14:55.082Z,9.50
2023-05-23T05:19:56.899Z,9.27
2023-05-23T05:24:58.376Z,8.73
2023-05-23T05:30:04.805Z,9.38
2023-05-23T05:35:07.857Z,9.25
2023-05-23T05:40:09.968Z,9.52
2023-05-23T05:45:11.670Z,9.00
2023-05-23T05:50:13.144Z,8.60
2023-05-23T05:55:14.759Z,9.50
2023-05-23T06:00:18.867Z,9.25
2023-05-23T06:05:20.348Z,9.73
2023-05-23T06:10:21.804Z,10.10
2023-05-23T06:15:23.717Z,10.23
2023-05-23T06:20:25.785Z,10.20
2023-05-23T06:25:27.490Z,9.93
2023-05-23T06:30:29.588Z,9.52
2023-05-23T06:35:31.386Z,8.68
2023-05-23T06:40:32.839Z,10.98
2023-05-23T06:45:35.893Z,10.10
2023-05-23T06:50:37.462Z,11.60
2023-05-23T06:55:38.945Z,10.95
2023-05-23T07:00:40.576Z,10.82
2023-05-23T07:05:42.217Z,9.50
2023-05-23T07:10:43.789Z,10.38
2023-05-23T07:15:45.757Z,9.90
2023-05-23T07:20:47.223Z,9.90
2023-05-23T07:26:01.127Z,9.82
2023-05-23T07:31:03.717Z,10.15
2023-05-23T07:36:05.238Z,9.30
2023-05-23T07:41:11.420Z,9.55
2023-05-23T07:46:13.649Z,9.10
2023-05-23T07:51:15.705Z,8.55
2023-05-23T07:56:17.192Z,8.65
2023-05-23T08:01:18.777Z,8.40
2023-05-23T08:06:20.245Z,8.00
2023-05-23T08:11:21.730Z,8.10
2023-05-23T08:16:23.234Z,7.50
2023-05-23T08:21:24.773Z,8.80
2023-05-23T08:26:27.952Z,8.70
2023-05-23T08:31:30.196Z,7.95
2023-05-23T08:36:36.456Z,8.48
2023-05-23T08:41:39.493Z,8.07
2023-05-23T08:46:46.854Z,8.68
2023-05-23T08:51:52.238Z,9.25
2023-05-23T08:56:53.799Z,9.30
2023-05-23T09:01:57.124Z,10.07
2023-05-23T09:06:59.204Z,9.55
2023-05-23T09:12:01.024Z,9.90
2023-05-23T09:17:05.534Z,10.15
2023-05-23T09:22:07.040Z,9.43
2023-05-23T09:27:08.812Z,10.57
2023-05-23T09:32:17.234Z,10.60
2023-05-23T09:42:25.252Z,10.30
2023-05-23T09:47:29.870Z,12.00
2023-05-23T09:52:41.101Z,11.88
2023-05-23T09:57:45.390Z,12.20
2023-05-23T10:03:15.057Z,12.63
2023-05-23T10:08:26.700Z,16.45
2023-05-23T10:13:28.933Z,14.30
2023-05-23T10:18:36.763Z,13.40
2023-05-23T10:23:39.305Z,12.77
2023-05-23T10:28:42.138Z,12.48
2023-05-23T10:33:50.811Z,12.18
2023-05-23T10:39:16.964Z,11.85
2023-05-23T10:44:27.283Z,13.20
2023-05-23T10:49:39.995Z,14.95
2023-05-23T10:54:43.192Z,12.80
2023-05-23T10:59:47.056Z,10.48
2023-05-23T11:05:25.049Z,10.20
2023-05-23T11:10:28.948Z,8.60
2023-05-23T11:15:42.724Z,6.93
2023-05-23T11:20:45.172Z,7.65
2023-05-23T11:25:52.189Z,7.90
2023-05-23T11:30:53.709Z,8.15
2023-05-23T11:35:55.422Z,8.52
2023-05-23T11:40:56.981Z,8.32
2023-05-23T11:46:07.542Z,7.20
2023-05-23T11:51:09.116Z,8.60
2023-05-23T11:56:10.676Z,6.72
2023-05-23T12:01:13.807Z,6.60
2023-05-23T12:06:16.615Z,6.63
2023-05-23T12:11:18.913Z,7.70
2023-05-23T12:16:21.251Z,6.50
2023-05-23T12:21:26.306Z,6.97
2023-05-23T12:26:27.759Z,7.07
2023-05-23T12:31:29.404Z,6.82
2023-05-23T12:36:32.529Z,7.45
2023-05-23T12:41:34.066Z,7.53
2023-05-23T12:46:35.735Z,7.20
2023-05-23T12:51:37.269Z,8.25
2023-05-23T12:56:39.811Z,8.95
2023-05-23T13:01:41.697Z,7.68
2023-05-23T13:06:43.372Z,8.45
2023-05-23T13:11:44.894Z,7.32
2023-05-23T13:16:46.608Z,8.55
2023-05-23T13:21:49.533Z,7.75
2023-05-23T13:26:51.491Z,7.55
2023-05-23T13:31:53.798Z,7.68
2023-05-23T13:36:55.678Z,7.25
2023-05-23T13:41:57.188Z,7.38
2023-05-23T13:47:12.810Z,8.73
2023-05-23T13:52:14.987Z,8.07
2023-05-23T13:57:16.953Z,7.38
2023-05-23T14:02:18.566Z,7.50
2023-05-23T14:07:20.025Z,7.10
2023-05-23T14:12:21.453Z,7.45
2023-05-23T14:17:23.118Z,8.23
2023-05-23T14:22:24.675Z,8.68
2023-05-23T14:27:27.018Z,8.23
2023-05-23T14:32:28.639Z,7.97
2023-05-23T14:37:30.245Z,8.75
2023-05-23T14:42:31.709Z,7.57
2023-05-23T14:47:33.246Z,7.60
2023-05-23T14:52:34.755Z,9.30
2023-05-23T14:57:36.248Z,7.82
2023-05-23T15:02:37.821Z,7.70
2023-05-23T15:07:39.342Z,7.45
2023-05-23T15:12:41.196Z,8.57
2023-05-23T15:17:42.679Z,8.88
2023-05-23T15:22:44.166Z,9.38
2023-05-23T15:27:45.812Z,7.75
2023-05-23T15:32:47.776Z,7.70
2023-05-23T15:37:49.447Z,6.55
2023-05-23T15:42:51.222Z,6.47
2023-05-23T15:47:52.722Z,7.18
2023-05-23T15:52:54.236Z,7.28
2023-05-23T15:57:55.715Z,7.22
2023-05-23T16:02:57.237Z,7.03
2023-05-23T16:07:58.751Z,7.28
2023-05-23T16:13:00.528Z,7.13
2023-05-23T16:18:03.151Z,7.00
2023-05-23T16:23:04.839Z,7.13
2023-05-23T16:28:06.572Z,7.35
2023-05-23T16:33:08.067Z,7.22
2023-05-23T16:38:09.767Z,7.40
2023-05-23T16:43:12.232Z,7.45
2023-05-23T16:48:13.821Z,8.45
2023-05-23T16:53:15.667Z,8.18
2023-05-23T16:58:20.066Z,7.80
2023-05-23T17:03:22.852Z,8.18
2023-05-23T17:08:24.351Z,8.63
2023-05-23T17:13:26.046Z,8.77
2023-05-23T17:18:27.533Z,10.05
2023-05-23T17:23:29.068Z,8.60
2023-05-23T17:28:30.516Z,7.78
2023-05-23T17:33:31.978Z,9.20
2023-05-23T17:38:33.493Z,9.60
2023-05-23T17:43:34.965Z,9.02
2023-05-23T17:48:46.917Z,8.88
2023-05-23T17:53:53.501Z,8.77
2023-05-23T17:58:54.991Z,9.13
2023-05-23T18:03:56.572Z,9.25
2023-05-23T18:08:58.106Z,9.40
2023-05-23T18:13:59.570Z,9.95
2023-05-23T18:19:01.148Z,8.98
2023-05-23T18:24:04.026Z,9.18
2023-05-23T18:29:05.539Z,8.77
2023-05-23T18:34:07.144Z,9.40
2023-05-23T18:39:09.843Z,9.85
2023-05-23T18:44:11.359Z,9.07
2023-05-23T18:49:12.798Z,7.70
2023-05-23T18:54:14.389Z,9.90
2023-05-23T18:59:16.918Z,9.75
2023-05-23T19:04:18.486Z,9.98
2023-05-23T19:09:20.066Z,9.32
2023-05-23T19:14:21.873Z,8.98
2023-05-23T19:19:23.360Z,8.57
2023-05-23T19:24:24.894Z,8.85
2023-05-23T19:29:26.738Z,8.68
2023-05-23T19:34:28.423Z,8.23
2023-05-23T19:39:29.867Z,8.95
2023-05-23T19:44:31.518Z,8.18
2023-05-23T19:49:33.063Z,8.63
2023-05-23T19:54:34.709Z,8.75
2023-05-23T19:59:36.277Z,7.78
2023-05-23T20:04:37.741Z,9.00
2023-05-23T20:09:39.196Z,9.02
2023-05-23T20:14:40.980Z,7.90
2023-05-23T20:19:42.693Z,9.63
2023-05-23T20:24:44.159Z,9.98
2023-05-23T20:29:45.651Z,9.48
2023-05-23T20:34:47.141Z,10.02
2023-05-23T20:39:48.658Z,10.82
2023-05-23T20:44:50.135Z,10.02
2023-05-23T20:49:51.608Z,10.35
2023-05-23T20:54:54.497Z,11.35
2023-05-23T20:59:56.235Z,9.93
2023-05-23T21:04:57.675Z,12.60
2023-05-23T21:09:59.425Z,12.65
2023-05-23T21:15:01.068Z,13.02
2023-05-23T21:20:02.698Z,12.27
2023-05-23T21:25:05.009Z,11.73
2023-05-23T21:30:07.286Z,13.05
2023-05-23T21:35:09.086Z,12.85
2023-05-23T21:40:10.768Z,12.00
2023-05-23T21:45:12.284Z,12.65
2023-05-23T21:50:13.721Z,13.43
2023-05-23T21:55:15.269Z,12.80
2023-05-23T22:00:18.894Z,12.60
2023-05-23T22:05:20.627Z,13.43
2023-05-23T22:10:22.180Z,14.15
2023-05-23T22:15:23.667Z,14.48
2023-05-23T22:20:25.372Z,14.38
2023-05-23T22:25:27.251Z,14.38
2023-05-23T22:30:28.950Z,15.07
2023-05-23T22:35:31.106Z,13.13
2023-05-23T22:40:32.969Z,13.02
2023-05-23T22:45:40.488Z,12.57
2023-05-23T22:50:42.189Z,10.55
2023-05-23T22:55:43.859Z,10.15
2023-05-23T23:00:45.672Z,9.30
2023-05-23T23:05:47.387Z,9.35
2023-05-23T23:10:48.902Z,9.95
2023-05-23T23:15:50.640Z,9.52
2023-05-23T23:20:52.249Z,8.90
2023-05-23T23:25:53.759Z,8.85
2023-05-23T23:30:55.418Z,9.52
2023-05-23T23:35:57.691Z,9.38
2023-05-23T23:40:59.155Z,9.65
2023-05-23T23:46:00.762Z,8.98
2023-05-23T23:51:02.422Z,9.30
2023-05-23T23:56:04.006Z,9.88
